Time;durP1;ratioP1;P1;durP2;ratioP2;P2;SDS_P1;SDS_P2;PMS_P1;PMS_P2;Temp;Humidity;BMP_temperature;BMP_pressure;BME280_temperature;BME280_humidity;BME280_pressure;Samples;Min_cycle;Max_cycle;Signal;HPM_P1;HPM_P2
2022/11/16 04:57:30;;;;;;;79.53;36.00;;;;;;;10.68;100.00;99651.37;5606971;31;78564;-55
2022/11/16 05:00:32;;;;;;;82.75;36.55;;;;;;;10.68;100.00;99651.37;5583286;32;33359;-55
2022/11/16 05:03:35;;;;;;;78.10;34.88;;;;;;;10.22;100.00;99646.84;5583460;31;33092;-56
2022/11/16 05:06:38;;;;;;;79.20;37.13;;;;;;;10.23;100.00;99655.66;5583412;31;33308;-56
2022/11/16 05:09:42;;;;;;;80.18;36.25;;;;;;;10.31;100.00;99649.69;5583382;31;33658;-57
2022/11/16 05:12:45;;;;;;;80.22;34.88;;;;;;;10.24;100.00;99650.03;5583348;31;34155;-55
2022/11/16 05:15:48;;;;;;;75.25;34.78;;;;;;;10.26;100.00;99645.19;5582910;32;33570;-56
2022/11/16 05:22:11;;;;;;;77.75;34.15;;;;;;;10.14;100.00;99644.88;5583331;32;33214;-56
2022/11/16 05:25:14;;;;;;;68.47;34.15;;;;;;;10.28;100.00;99637.66;5583503;31;34246;-56
2022/11/16 05:28:16;;;;;;;76.10;37.30;;;;;;;10.29;100.00;99638.44;5583071;31;33823;-55
2022/11/16 05:31:18;;;;;;;73.00;34.83;;;;;;;10.40;100.00;99639.06;5582969;31;34239;-56
2022/11/16 05:34:22;;;;;;;83.85;35.08;;;;;;;10.40;100.00;99636.38;5583261;31;33431;-56
2022/11/16 05:37:25;;;;;;;72.70;32.50;;;;;;;10.39;100.00;99618.72;5582803;31;34234;-56
2022/11/16 05:40:27;;;;;;;78.53;35.25;;;;;;;10.68;100.00;99619.22;5582731;31;33363;-56
2022/11/16 05:43:30;;;;;;;85.25;34.63;;;;;;;10.59;100.00;99612.97;5600860;31;33290;-57
2022/11/16 05:46:33;;;;;;;72.07;35.10;;;;;;;10.46;99.92;99611.06;5589336;31;34685;-56
2022/11/16 05:49:36;;;;;;;68.70;35.75;;;;;;;10.26;98.00;99610.38;5598005;31;33421;-56
2022/11/16 05:52:39;;;;;;;75.30;33.92;;;;;;;10.24;100.00;99603.72;5595028;31;33416;-56
2022/11/16 05:55:41;;;;;;;74.47;35.42;;;;;;;10.21;100.00;99602.41;5570750;32;33286;-55
2022/11/16 05:58:45;;;;;;;77.20;35.22;;;;;;;10.56;100.00;99602.84;5578791;32;34431;-56
2022/11/16 06:01:48;;;;;;;70.07;35.05;;;;;;;10.51;100.00;99603.75;5561736;32;33691;-56
2022/11/16 06:04:51;;;;;;;69.22;34.47;;;;;;;10.55;100.00;99602.03;5563549;32;33599;-56
2022/11/16 06:07:55;;;;;;;66.72;33.65;;;;;;;10.46;100.00;99592.31;5553714;32;33918;-55
2022/11/16 06:11:02;;;;;;;74.68;34.38;;;;;;;10.32;98.81;99601.16;5563209;32;33680;-56
2022/11/16 06:14:05;;;;;;;77.75;35.65;;;;;;;10.31;100.00;99596.09;5564346;32;33660;-56
2022/11/16 06:17:09;;;;;;;74.40;36.78;;;;;;;10.32;100.00;99600.34;5554785;31;33347;-55
2022/11/16 06:20:11;;;;;;;71.20;35.83;;;;;;;10.40;100.00;99601.53;5551202;32;33352;-56
2022/11/16 06:23:14;;;;;;;69.07;35.63;;;;;;;10.21;100.00;99602.41;5556864;31;34271;-56
2022/11/16 06:26:16;;;;;;;75.68;34.05;;;;;;;10.24;100.00;99599.13;5554580;31;34196;-56
2022/11/16 06:29:19;;;;;;;76.75;37.13;;;;;;;10.49;100.00;99600.56;5553619;31;33405;-56
2022/11/16 06:32:21;;;;;;;70.62;35.25;;;;;;;10.53;100.00;99600.78;5549553;32;33664;-56
2022/11/16 06:35:23;;;;;;;80.43;36.83;;;;;;;10.31;100.00;99591.53;5561650;31;34405;-56
2022/11/16 06:38:27;;;;;;;68.32;36.13;;;;;;;10.18;99.88;99594.97;5555388;31;33972;-55
2022/11/16 06:41:30;;;;;;;86.22;37.45;;;;;;;10.16;100.00;99596.34;5553960;32;34514;-56
2022/11/16 06:44:33;;;;;;;69.15;34.58;;;;;;;10.30;99.36;99598.00;5548234;32;33236;-55
2022/11/16 06:47:35;;;;;;;73.90;35.35;;;;;;;10.49;100.00;99589.84;5548515;32;33369;-56
2022/11/16 06:50:38;;;;;;;73.85;37.22;;;;;;;10.53;100.00;99584.69;5554124;31;34359;-55
2022/11/16 06:53:40;;;;;;;77.62;38.50;;;;;;;10.75;100.00;99573.22;5549253;32;33213;-56
2022/11/16 06:56:42;;;;;;;71.20;37.10;;;;;;;10.54;100.00;99581.69;5545421;32;34031;-56
2022/11/16 06:59:45;;;;;;;76.12;38.33;;;;;;;10.43;99.50;99572.28;5546973;32;33423;-56
2022/11/16 07:02:48;;;;;;;89.32;40.40;;;;;;;10.26;100.00;99572.88;5546390;32;33305;-56
2022/11/16 07:05:51;;;;;;;76.47;38.17;;;;;;;10.22;99.65;99574.53;5556215;32;33344;-56
2022/11/16 07:08:54;;;;;;;72.40;36.30;;;;;;;10.25;100.00;99576.63;5554160;32;33284;-56
2022/11/16 07:11:57;;;;;;;74.75;37.58;;;;;;;10.29;100.00;99574.16;5557938;32;34354;-56
2022/11/16 07:14:59;;;;;;;74.50;36.08;;;;;;;10.37;100.00;99570.00;5552303;32;33345;-56
2022/11/16 07:18:04;;;;;;;78.03;40.33;;;;;;;10.35;100.00;99563.03;5553035;32;33582;-57
2022/11/16 07:21:10;;;;;;;81.55;41.83;;;;;;;10.54;100.00;99562.94;5561223;32;34147;-55
2022/11/16 07:24:12;;;;;;;75.93;39.95;;;;;;;10.42;100.00;99561.84;5549476;32;34339;-55
2022/11/16 07:27:16;;;;;;;77.95;37.50;;;;;;;10.51;100.00;99558.19;5554591;32;33390;-56
2022/11/16 07:30:19;;;;;;;74.28;37.70;;;;;;;10.62;100.00;99556.06;5553159;32;33272;-56
2022/11/16 07:33:22;;;;;;;77.10;38.58;;;;;;;10.72;100.00;99560.44;5545903;32;34438;-55
2022/11/16 07:36:26;;;;;;;72.47;38.85;;;;;;;10.83;100.00;99559.13;5546986;32;33297;-57
2022/11/16 07:39:28;;;;;;;74.57;35.33;;;;;;;10.70;97.74;99562.62;5558074;32;34274;-56
2022/11/16 07:42:31;;;;;;;75.10;37.95;;;;;;;10.79;100.00;99550.09;5551014;32;33160;-56
2022/11/16 07:45:34;;;;;;;77.10;36.50;;;;;;;10.89;100.00;99557.13;5548397;32;33496;-56
2022/11/16 07:48:39;;;;;;;75.40;38.75;;;;;;;10.78;100.00;99543.94;5547128;32;34515;-56
2022/11/16 07:51:46;;;;;;;77.25;38.05;;;;;;;10.73;100.00;99548.63;5548013;32;33424;-57
2022/11/16 07:54:50;;;;;;;86.12;37.28;;;;;;;10.71;98.64;99545.44;5549448;32;33340;-56
2022/11/16 07:57:52;;;;;;;77.78;38.75;;;;;;;10.72;100.00;99539.00;5550788;32;33265;-56
2022/11/16 08:01:05;;;;;;;73.55;37.55;;;;;;;10.74;100.00;99536.81;5552184;32;33317;-56
2022/11/16 08:04:08;;;;;;;72.18;37.00;;;;;;;10.98;100.00;99526.59;5550029;32;33167;-57
2022/11/16 08:07:10;;;;;;;71.78;36.25;;;;;;;10.94;100.00;99524.84;5549514;32;34161;-56
2022/11/16 08:10:14;;;;;;;77.78;37.92;;;;;;;10.80;100.00;99520.31;5550033;32;33236;-56
2022/11/16 08:13:16;;;;;;;72.87;37.05;;;;;;;10.71;98.72;99530.16;5551658;32;33833;-56
2022/11/16 08:16:20;;;;;;;79.22;39.50;;;;;;;10.60;100.00;99530.69;5553071;32;33185;-56
2022/11/16 08:19:23;;;;;;;78.65;37.35;;;;;;;10.71;100.00;99529.37;5553535;32;34017;-57
2022/11/16 08:22:26;;;;;;;75.05;39.42;;;;;;;10.89;100.00;99524.94;5556957;32;33232;-56
2022/11/16 08:25:29;;;;;;;80.65;39.08;;;;;;;10.78;100.00;99530.53;5552498;32;33310;-56
2022/11/16 08:28:32;;;;;;;78.15;39.70;;;;;;;10.60;98.52;99530.69;5551912;31;34273;-56
2022/11/16 08:31:35;;;;;;;71.45;38.10;;;;;;;10.82;100.00;99526.16;5548892;32;33260;-56
2022/11/16 08:34:38;;;;;;;79.25;39.15;;;;;;;10.97;100.00;99522.34;5557582;31;34191;-56
2022/11/16 08:37:40;;;;;;;82.88;40.90;;;;;;;10.85;100.00;99516.72;5548164;32;33619;-56
2022/11/16 08:40:44;;;;;;;76.60;39.05;;;;;;;10.86;100.00;99517.50;5548459;32;34677;-56
2022/11/16 08:43:49;;;;;;;71.85;39.10;;;;;;;10.97;100.00;99514.28;5549461;32;33256;-56
2022/11/16 08:46:51;;;;;;;69.10;37.40;;;;;;;10.90;100.00;99515.81;5552831;32;33689;-56
2022/11/16 08:49:54;;;;;;;76.82;39.47;;;;;;;10.81;100.00;99521.87;5546763;31;31302;-55
2022/11/16 08:52:59;;;;;;;82.85;41.03;;;;;;;10.69;98.35;99518.94;5552559;32;33264;-56
2022/11/16 08:56:03;;;;;;;72.90;37.28;;;;;;;10.61;100.00;99519.66;5555758;31;33206;-56
2022/11/16 08:59:06;;;;;;;82.88;40.83;;;;;;;10.75;100.00;99517.72;5549664;31;33400;-55
2022/11/16 09:02:08;;;;;;;72.75;39.17;;;;;;;10.86;100.00;99504.91;5547428;32;34305;-57
2022/11/16 09:05:11;;;;;;;78.40;39.92;;;;;;;11.05;100.00;99516.25;5549860;32;33656;-56
2022/11/16 09:08:14;;;;;;;72.43;37.97;;;;;;;10.74;100.00;99518.84;5545311;32;34209;-56
2022/11/16 09:11:19;;;;;;;76.80;39.92;;;;;;;10.67;100.00;99506.94;5552507;32;33658;-56
2022/11/16 09:14:21;;;;;;;74.70;40.40;;;;;;;10.60;100.00;99503.88;5549163;32;33078;-56
2022/11/16 09:17:23;;;;;;;78.68;39.60;;;;;;;10.71;100.00;99506.03;5551631;32;33632;-56
2022/11/16 09:20:25;;;;;;;77.60;40.03;;;;;;;10.98;100.00;99502.47;5544132;32;34337;-56
2022/11/16 09:23:27;;;;;;;71.43;38.67;;;;;;;10.88;100.00;99496.56;5551345;32;33632;-56
2022/11/16 09:26:30;;;;;;;74.50;38.85;;;;;;;10.77;100.00;99509.41;5546870;32;33711;-56
2022/11/16 09:29:33;;;;;;;74.35;38.33;;;;;;;10.81;100.00;99495.06;5550783;32;33287;-57
2022/11/16 09:32:35;;;;;;;73.30;38.20;;;;;;;11.00;100.00;99492.25;5551852;32;33321;-56
2022/11/16 09:35:39;;;;;;;66.47;37.25;;;;;;;11.02;100.00;99490.03;5549530;32;33662;-57
2022/11/16 09:38:43;;;;;;;66.82;36.83;;;;;;;11.22;100.00;99488.75;5545212;32;33782;-57
2022/11/16 09:42:29;;;;;;;68.55;37.92;;;;;;;11.06;100.00;99479.50;5559164;32;35661;-56
2022/11/16 09:45:48;;;;;;;74.28;40.45;;;;;;;11.17;99.71;99480.84;5559133;32;33033;-57
2022/11/16 09:48:55;;;;;;;74.22;39.53;;;;;;;10.85;96.84;99478.38;5555757;32;33474;-56
2022/11/16 09:52:00;;;;;;;;;;;;;;;10.81;100.00;99481.66;5547634;32;34365;-56
2022/11/16 09:55:23;;;;;;;69.03;36.17;;;;;;;10.73;99.75;99478.94;5548989;32;33899;-57
2022/11/16 09:58:48;;;;;;;69.80;39.05;;;;;;;11.07;100.00;99473.03;5561259;32;33631;-55
2022/11/16 10:01:57;;;;;;;72.50;38.43;;;;;;;11.37;100.00;99459.97;5548077;32;33761;-56
2022/11/16 10:05:24;;;;;;;68.10;37.40;;;;;;;11.08;99.68;99453.16;5553242;32;33628;-56
2022/11/16 10:08:42;;;;;;;68.75;36.60;;;;;;;11.19;100.00;99456.38;5548123;32;33353;-56
2022/11/16 10:12:07;;;;;;;72.10;37.75;;;;;;;11.31;100.00;99442.41;5548338;32;33249;-56
2022/11/16 10:15:22;;;;;;;67.20;36.50;;;;;;;11.13;96.34;99436.94;5547062;32;34379;-56
2022/11/16 10:18:40;;;;;;;65.93;35.90;;;;;;;11.08;100.00;99437.06;5552306;32;33651;-55
2022/11/16 10:22:21;;;;;;;66.45;38.22;;;;;;;10.95;100.00;99430.66;5564328;32;34493;-55
2022/11/16 10:25:31;;;;;;;63.42;37.22;;;;;;;10.85;99.41;99430.91;5553825;32;33633;-55
2022/11/16 10:28:50;;;;;;;63.42;35.75;;;;;;;10.97;99.85;99420.44;5554798;32;33252;-57
2022/11/16 10:32:06;;;;;;;61.63;36.55;;;;;;;10.95;100.00;99419.94;5547987;32;33237;-56
2022/11/16 10:35:10;;;;;;;65.30;37.40;;;;;;;11.15;100.00;99417.84;5558684;32;35757;-56
2022/11/16 10:38:20;;;;;;;60.75;36.70;;;;;;;11.11;98.19;99412.31;5565976;32;33324;-56
2022/11/16 10:41:59;;;;;;;54.50;31.98;;;;;;;11.01;96.68;99421.41;5549009;32;34506;-56
2022/11/16 10:45:20;;;;;;;61.58;35.45;;;;;;;11.09;100.00;99409.13;5545732;32;34005;-56
2022/11/16 10:48:28;;;;;;;61.35;35.15;;;;;;;11.30;100.00;99398.69;5551119;32;33630;-56
2022/11/16 10:51:30;;;;;;;57.65;35.08;;;;;;;11.36;100.00;99396.66;5555832;32;33743;-56
2022/11/16 10:54:32;;;;;;;65.10;37.58;;;;;;;11.39;98.06;99396.84;5566616;32;33622;-57
2022/11/16 10:57:55;;;;;;;57.38;34.05;;;;;;;11.35;98.32;99393.16;5555729;32;33463;-55
2022/11/16 11:00:57;;;;;;;59.75;34.33;;;;;;;11.39;99.66;99379.94;5557672;32;33539;-56
2022/11/16 11:04:21;;;;;;;60.45;35.58;;;;;;;11.33;97.41;99373.12;5551778;32;34441;-56
2022/11/16 11:07:32;;;;;;;58.83;34.53;;;;;;;11.22;100.00;99376.06;5560304;32;33481;-56
2022/11/16 11:10:39;;;;;;;54.63;32.88;;;;;;;11.31;98.56;99367.28;5563329;32;33748;-55
2022/11/16 11:13:41;;;;;;;59.90;34.63;;;;;;;11.51;100.00;99366.72;5557119;32;33831;-56
2022/11/16 11:16:44;;;;;;;54.60;33.20;;;;;;;11.48;100.00;99357.38;5550657;32;34281;-56
2022/11/16 11:19:55;;;;;;;59.35;33.67;;;;;;;11.35;100.00;99358.28;5548033;32;33787;-56
2022/11/16 11:23:01;;;;;;;60.08;34.35;;;;;;;11.42;100.00;99350.59;5553772;32;33976;-56
2022/11/16 11:26:04;;;;;;;63.20;34.63;;;;;;;11.41;100.00;99349.00;5553372;31;33882;-56
2022/11/16 11:29:19;;;;;;;59.97;34.85;;;;;;;11.47;100.00;99344.28;5551768;32;33214;-56
2022/11/16 11:32:29;;;;;;;59.78;34.85;;;;;;;11.60;100.00;99354.13;5547791;32;34278;-56
2022/11/16 11:35:31;;;;;;;62.00;33.80;;;;;;;11.62;100.00;99341.19;5553744;32;33647;-56
2022/11/16 11:38:56;;;;;;;61.17;34.42;;;;;;;11.85;100.00;99343.78;5554733;32;34243;-56
2022/11/16 11:42:01;;;;;;;61.42;35.00;;;;;;;11.48;100.00;99335.91;5556527;32;34315;-56
2022/11/16 11:45:12;;;;;;;56.83;33.80;;;;;;;11.61;100.00;99333.44;5565011;32;33524;-56
2022/11/16 11:48:26;;;;;;;61.90;33.83;;;;;;;11.65;100.00;99331.69;5550170;32;33236;-56
2022/11/16 11:51:39;;;;;;;64.00;33.72;;;;;;;11.84;100.00;99321.50;5546432;32;34231;-56
2022/11/16 11:54:46;;;;;;;57.30;33.60;;;;;;;11.80;100.00;99320.53;5547419;32;34158;-57
2022/11/16 11:57:49;;;;;;;;;;;;;;;11.78;100.00;99314.69;5546024;32;33036;-56
2022/11/16 12:01:12;;;;;;;60.40;34.88;;;;;;;11.72;99.24;99308.69;5566663;32;34673;-56
2022/11/16 12:04:41;;;;;;;61.05;34.85;;;;;;;11.60;100.00;99315.75;5548605;32;33107;-56
2022/11/16 12:07:49;;;;;;;57.97;33.90;;;;;;;11.43;96.38;99306.56;5547009;32;33739;-55
2022/11/16 12:10:56;;;;;;;60.38;33.80;;;;;;;11.33;97.62;99311.44;5547376;32;34297;-56
2022/11/16 12:14:14;;;;;;;57.58;34.58;;;;;;;11.23;97.10;99313.28;5546945;32;33281;-56
2022/11/16 12:17:53;;;;;;;56.40;34.05;;;;;;;11.18;96.95;99310.72;5550338;31;33526;-56
2022/11/16 12:21:12;;;;;;;57.55;32.75;;;;;;;11.15;98.39;99308.66;5563517;31;33798;-56
2022/11/16 12:24:26;;;;;;;56.25;32.55;;;;;;;11.08;97.07;99310.22;5555954;32;34307;-56
2022/11/16 12:27:45;;;;;;;56.97;32.25;;;;;;;11.10;100.00;99302.66;5567262;32;33847;-56
2022/11/16 12:31:09;;;;;;;58.35;34.10;;;;;;;11.41;100.00;99302.59;5549567;32;33776;-55
2022/11/16 12:34:38;;;;;;;49.50;30.42;;;;;;;11.42;100.00;99301.50;5560087;32;33925;-56
2022/11/16 12:38:11;;;;;;;50.10;30.05;;;;;;;11.45;99.54;99306.22;5550612;32;34368;-56
2022/11/16 12:41:25;;;;;;;47.60;29.17;;;;;;;11.60;100.00;99295.06;5556450;32;33985;-56
2022/11/16 12:45:16;;;;;;;48.75;29.10;;;;;;;11.59;100.00;99293.50;5546927;32;33728;-55
2022/11/16 12:48:46;;;;;;;45.30;28.58;;;;;;;11.74;100.00;99292.25;5547311;32;33755;-57
2022/11/16 12:51:55;;;;;;;50.47;30.08;;;;;;;11.63;100.00;99281.03;5547515;32;34386;-57
2022/11/16 12:55:35;;;;;;;51.22;30.83;;;;;;;11.46;99.61;99275.63;5550360;32;33359;-56
2022/11/16 12:58:52;;;;;;;48.28;29.65;;;;;;;11.50;100.00;99287.31;5554539;32;33323;-56
2022/11/16 13:02:03;;;;;;;40.83;27.62;;;;;;;11.57;100.00;99286.84;5555014;32;34542;-57
2022/11/16 13:05:22;;;;;;;45.75;27.02;;;;;;;11.54;97.84;99282.91;5558558;32;34445;-56
2022/11/16 13:08:49;;;;;;;43.53;26.70;;;;;;;11.42;100.00;99283.53;5545834;32;34106;-56
2022/11/16 13:11:57;;;;;;;42.15;27.60;;;;;;;11.60;100.00;99280.88;5549572;32;33672;-56
2022/11/16 13:15:01;;;;;;;43.55;26.20;;;;;;;11.65;100.00;99275.31;5546648;32;33746;-55
2022/11/16 13:18:14;;;;;;;44.85;26.85;;;;;;;11.99;100.00;99277.31;5549437;32;34473;-55
2022/11/16 13:21:28;;;;;;;43.55;27.73;;;;;;;11.80;100.00;99274.88;5554972;32;33710;-56
2022/11/16 13:24:45;;;;;;;36.08;23.67;;;;;;;11.65;94.51;99281.47;5560373;32;33628;-56
2022/11/16 13:28:13;;;;;;;46.00;26.33;;;;;;;11.48;94.02;99281.47;5568937;32;34377;-56
2022/11/16 13:31:30;;;;;;;39.50;25.83;;;;;;;11.40;97.16;99279.56;5556836;32;34816;-56
2022/11/16 13:34:36;;;;;;;37.35;24.12;;;;;;;11.69;100.00;99284.34;5567249;32;33775;-56
2022/11/16 13:37:39;;;;;;;37.97;25.02;;;;;;;11.90;100.00;99279.19;5555606;31;33810;-56
2022/11/16 13:40:41;;;;;;;42.97;25.42;;;;;;;11.54;98.87;99266.78;5550675;32;34557;-56
2022/11/16 13:43:48;;;;;;;36.92;24.98;;;;;;;11.41;97.10;99270.41;5548988;32;34342;-56
2022/11/16 13:46:54;;;;;;;37.28;25.35;;;;;;;11.63;100.00;99272.19;5555378;32;32078;-56
2022/11/16 13:50:00;;;;;;;39.63;25.33;;;;;;;11.48;100.00;99268.81;5566859;32;33386;-56
2022/11/16 13:53:12;;;;;;;35.05;23.85;;;;;;;11.35;99.12;99266.28;5549011;32;33600;-56
2022/11/16 13:56:49;;;;;;;34.03;21.55;;;;;;;11.27;97.20;99265.94;5568599;32;34339;-56
2022/11/16 14:00:01;;;;;;;36.83;24.55;;;;;;;11.33;100.00;99268.50;5568950;32;33767;-56
2022/11/16 14:03:26;;;;;;;33.00;23.70;;;;;;;11.39;100.00;99264.53;5556023;32;35156;-55
2022/11/16 14:06:29;;;;;;;33.28;22.67;;;;;;;11.41;100.00;99259.66;5568809;32;33865;-56
2022/11/16 14:09:46;;;;;;;31.48;21.55;;;;;;;11.44;100.00;99259.03;5566809;32;33873;-56
2022/11/16 14:12:51;;;;;;;30.77;21.95;;;;;;;11.36;97.97;99255.25;5563197;32;33478;-56
2022/11/16 14:16:18;;;;;;;35.40;23.85;;;;;;;11.59;100.00;99247.88;5549030;32;33641;-56
2022/11/16 14:19:47;;;;;;;31.20;21.67;;;;;;;11.61;100.00;99248.31;5548830;32;33710;-56
2022/11/16 14:23:14;;;;;;;31.65;20.33;;;;;;;11.36;100.00;99241.84;5549121;32;34483;-56
2022/11/16 14:26:38;;;;;;;32.80;22.50;;;;;;;11.44;99.87;99246.41;5549371;32;33786;-55
2022/11/16 14:30:01;;;;;;;30.20;20.17;;;;;;;11.62;100.00;99244.56;5548820;32;33706;-56
2022/11/16 14:33:03;;;;;;;34.40;22.02;;;;;;;11.35;97.26;99242.12;5554515;32;33367;-56
2022/11/16 14:36:08;;;;;;;32.55;19.77;;;;;;;11.41;100.00;99241.66;5555242;32;34439;-56
2022/11/16 14:39:30;;;;;;;29.25;18.02;;;;;;;11.48;100.00;99241.22;5548913;32;34256;-55
2022/11/16 14:42:49;;;;;;;24.37;17.27;;;;;;;11.38;96.87;99244.19;5560838;32;34354;-56
2022/11/16 14:46:34;;;;;;;23.10;16.30;;;;;;;11.44;100.00;99242.94;5548560;32;33804;-56
2022/11/16 14:49:45;;;;;;;21.62;15.60;;;;;;;11.58;98.48;99238.22;5548930;32;33269;-55
2022/11/16 14:52:51;;;;;;;25.17;16.42;;;;;;;11.57;100.00;99231.28;5558667;32;33341;-55
2022/11/16 14:56:05;;;;;;;23.70;16.60;;;;;;;11.32;95.32;99229.34;5548854;32;34428;-55
2022/11/16 14:59:15;;;;;;;23.17;16.70;;;;;;;11.46;100.00;99230.78;5548752;32;33905;-56
2022/11/16 15:02:26;;;;;;;22.83;15.18;;;;;;;11.48;100.00;99225.09;5548726;32;33877;-56
2022/11/16 15:05:33;;;;;;;25.15;16.23;;;;;;;11.37;96.47;99221.94;5555010;32;33863;-56
2022/11/16 15:08:46;;;;;;;26.83;18.33;;;;;;;11.18;97.50;99213.38;5568339;32;33299;-56
2022/11/16 15:15:11;;;;;;;24.23;17.40;;;;;;;11.45;100.00;99218.47;5549084;32;33369;-56
2022/11/16 15:18:19;;;;;;;25.83;18.87;;;;;;;11.50;100.00;99217.53;5548704;32;34262;-55
2022/11/16 15:21:22;;;;;;;28.60;18.98;;;;;;;11.37;100.00;99216.56;5562223;32;33566;-55
2022/11/16 15:24:28;;;;;;;26.20;17.62;;;;;;;11.38;100.00;99218.13;5568104;32;33486;-56
2022/11/16 15:27:37;;;;;;;26.95;18.33;;;;;;;11.25;95.27;99209.13;5568330;32;33575;-55
2022/11/16 15:30:40;;;;;;;28.10;19.35;;;;;;;11.19;96.42;99204.22;5548933;32;33637;-57
2022/11/16 15:33:44;;;;;;;27.75;18.70;;;;;;;11.19;97.26;99213.06;5562001;32;34372;-56
2022/11/16 15:36:47;;;;;;;27.70;18.73;;;;;;;11.23;100.00;99205.97;5563765;32;34096;-55
2022/11/16 15:39:49;;;;;;;30.83;19.33;;;;;;;11.22;96.68;99209.75;5567833;32;34397;-57
2022/11/16 15:42:52;;;;;;;29.10;19.67;;;;;;;11.11;99.71;99199.63;5567707;32;33356;-56
2022/11/16 15:45:54;;;;;;;29.15;19.00;;;;;;;11.18;100.00;99198.06;5567547;32;33785;-56
2022/11/16 15:48:57;;;;;;;30.65;19.70;;;;;;;11.33;100.00;99198.75;5568249;32;34448;-56
2022/11/16 15:52:00;;;;;;;26.77;18.55;;;;;;;11.20;96.77;99200.44;5568319;32;33434;-56
2022/11/16 15:55:03;;;;;;;29.80;19.80;;;;;;;11.12;97.96;99204.66;5563990;32;33670;-57
2022/11/16 15:58:13;;;;;;;29.02;19.75;;;;;;;11.11;97.94;99202.31;5549292;32;33824;-55
2022/11/16 16:01:16;;;;;;;30.23;20.42;;;;;;;11.17;100.00;99193.81;5549201;32;33651;-56
2022/11/16 16:04:19;;;;;;;29.90;20.10;;;;;;;11.22;100.00;99195.53;5548956;32;33608;-55
2022/11/16 16:07:41;;;;;;;29.02;20.27;;;;;;;11.10;98.31;99195.38;5548049;32;34162;-55
2022/11/16 16:10:43;;;;;;;32.25;20.90;;;;;;;11.43;100.00;99195.75;5549360;32;34458;-56
2022/11/16 16:14:00;;;;;;;28.25;18.62;;;;;;;11.18;97.08;99192.69;5548865;32;34353;-56
2022/11/16 16:17:03;;;;;;;30.62;18.77;;;;;;;11.12;98.43;99196.62;5548313;32;33737;-56
2022/11/16 16:20:06;;;;;;;31.83;19.98;;;;;;;11.36;100.00;99185.47;5549222;32;33760;-55
2022/11/16 16:23:15;;;;;;;31.50;19.33;;;;;;;11.32;95.85;99189.09;5548472;32;33273;-55
2022/11/16 16:26:17;;;;;;;29.98;20.12;;;;;;;11.23;100.00;99189.09;5555174;32;33789;-56
2022/11/16 16:29:19;;;;;;;27.55;18.95;;;;;;;11.37;100.00;99197.00;5561224;32;33655;-56
2022/11/16 16:32:35;;;;;;;30.10;20.37;;;;;;;11.51;100.00;99200.31;5559099;32;33403;-56
2022/11/16 16:35:37;;;;;;;28.65;18.27;;;;;;;11.69;100.00;99191.19;5554759;32;34333;-56
2022/11/16 16:38:40;;;;;;;25.85;17.10;;;;;;;11.47;96.90;99192.13;5555442;32;34593;-55
2022/11/16 16:41:42;;;;;;;23.65;16.92;;;;;;;11.43;94.98;99198.44;5565015;32;34483;-56
2022/11/16 16:44:46;;;;;;;28.48;18.00;;;;;;;11.37;95.66;99205.06;5557783;32;34387;-56
2022/11/16 16:47:48;;;;;;;25.02;16.48;;;;;;;11.21;98.48;99200.13;5558792;32;33672;-56
2022/11/16 16:50:50;;;;;;;24.42;17.33;;;;;;;11.00;95.83;99194.56;5562465;32;33653;-56
